Time;durP1;ratioP1;P1;durP2;ratioP2;P2;SDS_P1;SDS_P2;PMS_P1;PMS_P2;Temp;Humidity;BMP_temperature;BMP_pressure;BME280_temperature;BME280_humidity;BME280_pressure;Samples;Min_cycle;Max_cycle;Signal;HPM_P1;HPM_P2
2022/01/21 00:01:25;;;;;;;16.90;5.32;;;1.60;99.90;;;;;;6119756;23;20601;-84
2022/01/21 00:03:51;;;;;;;18.30;6.57;;;1.60;99.90;;;;;;6121217;23;20600;-84
2022/01/21 00:06:17;;;;;;;14.90;5.10;;;1.60;99.90;;;;;;6145828;23;20192;-84
2022/01/21 00:08:44;;;;;;;11.93;5.00;;;1.50;99.90;;;;;;6121612;23;20220;-84
2022/01/21 00:11:12;;;;;;;11.77;5.03;;;1.50;99.90;;;;;;6144968;23;20160;-84
2022/01/21 00:13:39;;;;;;;8.80;4.80;;;1.50;99.90;;;;;;6147135;23;20156;-84
2022/01/21 00:16:05;;;;;;;11.70;5.22;;;1.40;99.90;;;;;;6146034;23;20149;-85
2022/01/21 00:18:34;;;;;;;15.10;5.28;;;1.60;99.90;;;;;;6121830;23;20195;-84
2022/01/21 00:31:57;;;;;;;15.20;5.40;;;1.50;99.90;;;;;;6145213;23;20243;-84
2022/01/21 00:34:22;;;;;;;18.60;5.37;;;1.30;99.90;;;;;;6147456;23;20486;-84
2022/01/21 00:36:48;;;;;;;8.90;4.70;;;0.90;99.90;;;;;;6145524;23;20233;-83
2022/01/21 00:39:14;;;;;;;12.20;5.20;;;1.30;99.90;;;;;;6147127;23;20156;-82
2022/01/21 00:41:52;;;;;;;9.27;4.13;;;1.40;99.90;;;;;;6145530;23;20628;-82
2022/01/21 00:44:18;;;;;;;9.90;5.10;;;1.50;99.90;;;;;;6122563;23;20370;-83
2022/01/21 00:46:43;;;;;;;19.10;5.70;;;1.50;99.90;;;;;;6146040;23;20188;-84
2022/01/21 00:49:09;;;;;;;15.97;4.90;;;1.60;99.90;;;;;;6148163;23;20176;-84
2022/01/21 00:51:35;;;;;;;7.10;4.77;;;1.50;99.90;;;;;;6120151;23;20152;-84
2022/01/21 00:54:00;;;;;;;9.27;5.20;;;3.40;99.90;;;;;;6147460;23;20144;-83
2022/01/21 00:56:26;;;;;;;7.90;4.43;;;1.40;99.90;;;;;;6144813;23;20160;-84
2022/01/21 00:58:51;;;;;;;14.50;6.17;;;1.40;99.90;;;;;;6147390;23;20141;-84
2022/01/21 01:01:17;;;;;;;19.70;6.37;;;1.30;99.90;;;;;;6145125;23;20156;-84
2022/01/21 01:03:43;;;;;;;13.33;8.43;;;1.40;99.90;;;;;;6121668;23;20153;-84
2022/01/21 01:06:09;;;;;;;23.90;5.70;;;0.70;99.90;;;;;;6177516;23;20184;-83
2022/01/21 01:08:35;;;;;;;13.70;6.55;;;1.20;99.90;;;;;;6125869;23;20188;-84
2022/01/21 01:11:17;;;;;;;14.90;6.57;;;1.10;99.90;;;;;;6144582;23;20156;-84
2022/01/21 01:21:57;;;;;;;7.93;5.55;;;1.20;99.90;;;;;;6145250;23;20211;-84
2022/01/21 01:29:51;;;;;;;12.57;6.68;;;1.10;99.90;;;;;;6147377;23;20462;-84
2022/01/21 01:32:17;;;;;;;14.70;6.57;;;1.10;99.90;;;;;;6145077;23;20251;-84
2022/01/21 01:34:43;;;;;;;12.27;6.10;;;1.10;99.90;;;;;;6120425;23;20183;-84
2022/01/21 01:37:17;;;;;;;13.17;5.73;;;;;;;;;;6118792;23;20363;-84
2022/01/21 01:39:47;;;;;;;16.88;5.22;;;1.40;99.90;;;;;;6120930;23;20164;-84
2022/01/21 01:50:41;;;;;;;14.20;6.40;;;1.10;99.90;;;;;;6042738;23;20159;-84
2022/01/21 01:53:08;;;;;;;19.53;6.90;;;0.90;99.90;;;;;;6121463;23;20201;-84
2022/01/21 01:55:36;;;;;;;11.25;6.20;;;1.00;99.90;;;;;;6145864;23;20384;-84
2022/01/21 01:58:02;;;;;;;11.25;6.88;;;0.80;99.90;;;;;;6121164;23;20247;-84
2022/01/21 02:00:27;;;;;;;13.70;7.40;;;0.90;99.90;;;;;;6144507;23;20163;-84
2022/01/21 02:02:53;;;;;;;10.30;7.10;;;0.60;99.90;;;;;;6120032;23;20232;-83
2022/01/21 02:05:19;;;;;;;16.30;7.70;;;0.90;99.90;;;;;;6145625;23;20152;-83
2022/01/21 02:07:46;;;;;;;11.47;6.13;;;1.50;99.90;;;;;;6148407;23;20656;-83
2022/01/21 02:10:12;;;;;;;19.85;7.43;;;1.00;99.90;;;;;;6122216;23;20160;-84
2022/01/21 02:12:41;;;;;;;11.93;6.90;;;1.10;99.90;;;;;;6148162;23;20213;-83
2022/01/21 02:15:06;;;;;;;15.50;6.45;;;1.20;99.90;;;;;;6130905;23;20206;-84
2022/01/21 02:22:46;;;;;;;11.98;7.18;;;2.10;99.90;;;;;;6148888;23;20151;-83
2022/01/21 02:25:18;;;;;;;9.98;6.43;;;1.30;99.90;;;;;;6148598;23;20140;-84
2022/01/21 02:27:46;;;;;;;11.68;5.65;;;1.30;99.90;;;;;;6123147;23;20181;-84
2022/01/21 02:30:22;;;;;;;13.82;8.15;;;1.30;99.90;;;;;;6130408;23;20156;-84
2022/01/21 02:32:50;;;;;;;10.57;6.50;;;1.30;99.90;;;;;;6165305;23;20167;-83
2022/01/21 02:35:17;;;;;;;13.88;6.65;;;1.10;99.90;;;;;;6165643;23;20145;-83
2022/01/21 02:37:43;;;;;;;16.33;7.07;;;1.30;99.90;;;;;;6137754;23;20153;-84
2022/01/21 02:40:11;;;;;;;15.43;6.75;;;0.80;99.90;;;;;;6153954;23;20153;-83
2022/01/21 02:42:41;;;;;;;12.80;7.22;;;1.10;99.90;;;;;;6149050;23;20137;-84
2022/01/21 02:45:11;;;;;;;16.48;7.57;;;1.10;99.90;;;;;;6148347;23;20156;-83
2022/01/21 02:47:37;;;;;;;12.73;7.18;;;0.40;99.90;;;;;;6148070;23;20176;-84
2022/01/21 02:50:04;;;;;;;11.73;8.27;;;1.00;99.90;;;;;;6122039;23;20153;-83
2022/01/21 02:52:39;;;;;;;23.80;7.80;;;0.90;99.90;;;;;;6107306;23;20267;-84
2022/01/21 02:55:09;;;;;;;15.85;7.55;;;1.00;99.90;;;;;;6118649;23;20157;-84
2022/01/21 02:57:34;;;;;;;10.02;7.60;;;1.00;99.90;;;;;;6116797;23;20616;-83
2022/01/21 03:00:00;;;;;;;16.10;7.10;;;0.90;99.90;;;;;;6092550;23;20157;-83
2022/01/21 03:02:25;;;;;;;15.17;7.40;;;0.90;99.90;;;;;;6117397;23;20157;-84
2022/01/21 03:05:06;;;;;;;11.03;8.13;;;0.80;99.90;;;;;;6092956;23;20157;-83
2022/01/21 03:07:32;;;;;;;14.77;7.63;;;1.10;99.90;;;;;;6092046;23;20239;-83
2022/01/21 03:09:58;;;;;;;11.90;6.90;;;1.10;99.90;;;;;;6119974;23;20157;-84
2022/01/21 03:12:24;;;;;;;15.97;6.67;;;1.20;99.90;;;;;;6114159;23;20249;-83
2022/01/21 03:14:49;;;;;;;10.20;6.10;;;1.30;99.90;;;;;;6118369;23;20204;-83
2022/01/21 03:17:15;;;;;;;9.53;7.00;;;1.10;99.90;;;;;;6118742;23;20148;-84
2022/01/21 03:19:40;;;;;;;13.27;6.60;;;1.10;99.90;;;;;;6116636;23;20185;-85
2022/01/21 03:22:06;;;;;;;9.30;6.50;;;1.50;99.90;;;;;;6118649;23;20157;-83
2022/01/21 03:24:32;;;;;;;10.53;6.23;;;1.10;99.90;;;;;;6116320;23;20172;-83
2022/01/21 03:26:58;;;;;;;11.68;6.30;;;1.10;99.90;;;;;;6117752;23;20181;-84
2022/01/21 03:29:24;;;;;;;16.93;6.63;;;1.10;99.90;;;;;;6090139;23;20684;-84
2022/01/21 03:31:49;;;;;;;7.00;5.50;;;1.00;99.90;;;;;;6118410;23;20185;-83
2022/01/21 03:34:15;;;;;;;8.63;6.40;;;1.10;99.90;;;;;;6116605;23;20284;-84
2022/01/21 03:36:41;;;;;;;11.50;7.00;;;1.10;99.90;;;;;;6092010;23;20165;-83
2022/01/21 03:39:06;;;;;;;16.13;7.47;;;1.10;99.90;;;;;;6089580;23;20212;-84
2022/01/21 03:41:32;;;;;;;14.57;6.83;;;1.00;99.90;;;;;;6118515;23;20149;-83
2022/01/21 03:43:58;;;;;;;13.57;7.20;;;1.00;99.90;;;;;;6115741;23;20707;-84
2022/01/21 03:46:24;;;;;;;7.43;5.03;;;0.70;99.90;;;;;;6117780;23;20158;-84
2022/01/21 03:48:50;;;;;;;12.87;6.67;;;0.80;99.90;;;;;;6116016;23;20164;-84
2022/01/21 03:51:18;;;;;;;8.40;5.57;;;0.90;99.90;;;;;;6092384;23;20163;-84
2022/01/21 03:53:46;;;;;;;14.63;6.40;;;1.00;99.90;;;;;;6112870;23;20280;-83
2022/01/21 03:56:12;;;;;;;15.15;7.63;;;0.20;99.90;;;;;;6116398;23;20293;-84
2022/01/21 03:58:38;;;;;;;15.15;7.40;;;0.90;99.90;;;;;;6115390;23;20172;-83
2022/01/21 04:01:04;;;;;;;12.97;7.80;;;1.40;99.90;;;;;;6115788;23;20499;-83
2022/01/21 04:03:30;;;;;;;9.80;6.37;;;1.00;99.90;;;;;;6114004;23;20165;-83
2022/01/21 04:05:56;;;;;;;16.07;6.77;;;1.10;99.90;;;;;;6116039;23;20794;-84
2022/01/21 04:08:21;;;;;;;15.53;6.70;;;1.20;99.90;;;;;;6115407;23;20188;-86
2022/01/21 04:10:48;;;;;;;20.97;7.70;;;1.20;99.90;;;;;;6118068;23;20161;-84
2022/01/21 04:13:16;;;;;;;16.73;6.78;;;1.30;99.90;;;;;;6115713;23;20600;-85
2022/01/21 04:15:44;;;;;;;10.35;6.40;;;1.20;99.90;;;;;;6115510;23;20158;-84
2022/01/21 04:18:11;;;;;;;10.88;5.88;;;1.30;99.90;;;;;;6114178;23;20157;-84
2022/01/21 04:20:37;;;;;;;12.18;6.43;;;1.20;99.90;;;;;;6115956;23;20602;-84
2022/01/21 04:23:04;;;;;;;13.77;6.50;;;1.30;99.90;;;;;;6114017;23;20162;-84
2022/01/21 04:25:30;;;;;;;12.18;6.35;;;1.20;99.90;;;;;;6118091;23;20484;-83
2022/01/21 04:27:55;;;;;;;13.13;5.70;;;1.20;99.90;;;;;;6113138;23;20268;-84
2022/01/21 04:30:21;;;;;;;18.60;5.77;;;1.20;99.90;;;;;;6116614;23;20159;-84
2022/01/21 04:32:47;;;;;;;14.27;6.60;;;1.10;99.90;;;;;;6115604;23;20574;-84
2022/01/21 04:35:12;;;;;;;9.30;5.77;;;0.60;99.90;;;;;;6116213;23;20153;-84
2022/01/21 04:37:45;;;;;;;8.97;6.10;;;2.20;99.90;;;;;;6114154;23;20462;-84
2022/01/21 04:40:14;;;;;;;13.70;6.38;;;1.20;99.90;;;;;;6117475;23;20142;-84
2022/01/21 04:48:09;;;;;;;13.48;7.35;;;1.20;99.90;;;;;;6115940;23;20476;-84
2022/01/21 04:50:52;;;;;;;7.63;5.60;;;0.90;99.90;;;;;;6117982;23;20560;-84
2022/01/21 04:53:18;;;;;;;15.93;5.53;;;2.00;99.90;;;;;;6138605;23;20198;-83
2022/01/21 04:55:44;;;;;;;10.67;6.00;;;2.10;99.90;;;;;;6120849;23;20188;-84
2022/01/21 04:58:09;;;;;;;14.73;6.10;;;1.50;99.90;;;;;;6119202;23;20403;-84
2022/01/21 05:00:35;;;;;;;8.23;6.40;;;1.30;99.90;;;;;;6121337;23;20412;-84
2022/01/21 05:03:01;;;;;;;10.37;6.27;;;1.30;99.90;;;;;;6119010;23;20180;-83
2022/01/21 05:05:26;;;;;;;13.57;5.90;;;1.30;99.90;;;;;;6147550;23;20148;-85
2022/01/21 05:07:53;;;;;;;16.13;5.33;;;1.30;99.90;;;;;;6119266;23;20199;-84
2022/01/21 05:10:19;;;;;;;12.57;5.60;;;1.30;99.90;;;;;;6147171;23;20588;-84
2022/01/21 05:12:45;;;;;;;9.53;7.13;;;1.40;99.90;;;;;;6118646;23;20250;-82
2022/01/21 05:15:17;;;;;;;12.10;6.40;;;1.40;99.90;;;;;;6146965;23;20176;-84
2022/01/21 05:17:48;;;;;;;10.68;6.47;;;1.40;99.90;;;;;;6144984;23;20223;-84
2022/01/21 05:20:14;;;;;;;13.45;5.68;;;1.50;99.90;;;;;;6120026;23;20734;-83
2022/01/21 05:22:40;;;;;;;12.57;5.38;;;1.50;99.90;;;;;;6144490;23;20157;-83
2022/01/21 05:25:07;;;;;;;4.93;4.53;;;0.70;99.90;;;;;;6119871;23;20243;-83
2022/01/21 05:27:35;;;;;;;7.35;6.05;;;1.60;99.90;;;;;;6144814;23;20176;-81
2022/01/21 05:30:01;;;;;;;8.07;5.93;;;1.50;99.90;;;;;;6146789;23;20347;-83
2022/01/21 05:32:27;;;;;;;11.63;5.03;;;1.60;99.90;;;;;;6119400;23;20181;-83
2022/01/21 05:34:53;;;;;;;8.57;5.40;;;1.60;99.90;;;;;;6120756;23;20163;-84
2022/01/21 05:37:18;;;;;;;9.18;5.57;;;1.50;99.90;;;;;;6147422;23;20144;-83
2022/01/21 05:39:45;;;;;;;11.80;5.83;;;1.50;99.90;;;;;;6117767;23;20219;-84
2022/01/21 05:42:11;;;;;;;9.20;5.60;;;1.60;99.90;;;;;;6120257;23;20171;-84
2022/01/21 05:47:06;;;;;;;6.83;4.03;;;1.30;99.90;;;;;;6146496;23;20180;-84
2022/01/21 05:49:33;;;;;;;17.98;6.57;;;1.60;99.90;;;;;;6145412;23;20153;-83
2022/01/21 05:54:57;;;;;;;12.18;6.57;;;1.60;99.90;;;;;;6080894;23;20236;-83
2022/01/21 05:57:23;;;;;;;13.50;5.50;;;1.60;99.90;;;;;;6117971;23;20191;-82
2022/01/21 05:59:51;;;;;;;9.43;6.20;;;1.60;99.90;;;;;;6118502;23;20371;-83
2022/01/21 06:02:17;;;;;;;7.15;6.32;;;1.60;99.90;;;;;;6144307;23;20160;-83
2022/01/21 06:04:46;;;;;;;7.60;5.63;;;1.60;99.90;;;;;;6119879;23;20211;-84
2022/01/21 06:07:12;;;;;;;9.05;5.10;;;1.40;99.90;;;;;;6143165;23;20459;-84
2022/01/21 06:09:38;;;;;;;12.33;7.80;;;1.70;99.90;;;;;;6144991;23;20163;-83
2022/01/21 06:12:07;;;;;;;9.77;5.50;;;1.60;99.90;;;;;;6117828;23;20588;-83
2022/01/21 06:14:32;;;;;;;15.75;6.35;;;1.50;99.90;;;;;;6120810;23;20145;-84
2022/01/21 06:16:58;;;;;;;10.13;6.33;;;1.50;99.90;;;;;;6118418;23;20187;-84
2022/01/21 06:19:24;;;;;;;8.23;6.30;;;1.50;99.90;;;;;;6146842;23;20157;-83
2022/01/21 06:21:49;;;;;;;10.53;6.00;;;1.40;99.90;;;;;;6119635;23;20164;-83
2022/01/21 06:24:15;;;;;;;9.43;6.50;;;1.30;99.90;;;;;;6120611;23;20211;-83
2022/01/21 06:26:41;;;;;;;8.67;6.93;;;1.30;99.90;;;;;;6118759;23;20349;-83
2022/01/21 06:29:07;;;;;;;8.23;6.33;;;1.60;99.90;;;;;;6120433;23;20573;-83
2022/01/21 06:31:33;;;;;;;6.15;5.55;;;1.10;99.90;;;;;;6145147;23;20406;-83
2022/01/21 06:33:59;;;;;;;7.27;6.60;;;1.20;99.90;;;;;;6147121;23;20152;-81
2022/01/21 06:36:25;;;;;;;17.93;6.87;;;2.10;99.90;;;;;;6144593;23;20761;-82
2022/01/21 06:38:50;;;;;;;10.40;7.20;;;2.50;99.90;;;;;;6147573;23;20236;-83
2022/01/21 06:41:16;;;;;;;10.87;7.37;;;1.20;99.90;;;;;;6149049;23;20635;-84
2022/01/21 06:43:42;;;;;;;26.23;8.67;;;1.00;99.90;;;;;;6120526;23;20403;-85
2022/01/21 06:46:12;;;;;;;14.73;8.63;;;0.40;99.90;;;;;;6122577;23;20234;-85
2022/01/21 06:48:40;;;;;;;26.00;8.98;;;0.40;99.90;;;;;;6147253;23;20463;-82
2022/01/21 06:51:06;;;;;;;14.57;8.70;;;1.00;99.90;;;;;;6118916;23;20157;-84
2022/01/21 06:53:32;;;;;;;20.38;10.35;;;1.00;99.90;;;;;;6148343;23;20199;-83
2022/01/21 06:55:57;;;;;;;13.23;8.43;;;1.10;99.90;;;;;;6123060;23;20157;-83
2022/01/21 06:58:23;;;;;;;9.27;8.43;;;0.80;99.90;;;;;;6151853;23;20380;-83
2022/01/21 07:00:49;;;;;;;17.00;8.67;;;1.30;99.90;;;;;;6119038;23;20161;-84
2022/01/21 07:03:34;;;;;;;16.77;9.67;;;1.30;99.90;;;;;;6123315;23;20600;-83
2022/01/21 07:06:00;;;;;;;13.68;7.72;;;1.80;99.90;;;;;;6146722;23;20164;-83
2022/01/21 07:08:27;;;;;;;12.53;8.03;;;1.30;99.90;;;;;;6122607;23;20699;-84
2022/01/21 07:11:05;;;;;;;11.95;8.07;;;1.50;99.90;;;;;;6147273;23;20160;-84
2022/01/21 07:13:31;;;;;;;13.88;7.50;;;1.70;99.90;;;;;;6148700;23;20257;-83
2022/01/21 07:15:58;;;;;;;11.33;8.00;;;1.60;99.90;;;;;;6146189;23;20161;-83
2022/01/21 07:18:24;;;;;;;17.23;8.30;;;1.70;99.90;;;;;;6122810;23;20535;-83
2022/01/21 07:20:50;;;;;;;17.90;8.83;;;1.80;99.90;;;;;;6119992;23;20156;-83
2022/01/21 07:23:15;;;;;;;19.43;9.40;;;1.80;99.90;;;;;;6148409;23;20712;-83
2022/01/21 07:25:41;;;;;;;15.63;10.23;;;1.80;99.90;;;;;;6146350;23;20149;-85
2022/01/21 07:28:08;;;;;;;18.33;9.43;;;1.70;99.90;;;;;;6147801;23;20547;-83
2022/01/21 07:30:34;;;;;;;22.13;10.18;;;1.60;99.90;;;;;;6119808;23;20188;-82
2022/01/21 07:33:00;;;;;;;16.53;11.67;;;1.60;99.90;;;;;;6149037;23;20520;-83
2022/01/21 07:35:26;;;;;;;16.33;9.97;;;;;;;;;;6121820;23;20452;-82
2022/01/21 07:37:51;;;;;;;21.60;11.15;;;1.50;99.90;;;;;;6124239;23;20235;-84
2022/01/21 07:40:17;;;;;;;15.73;11.00;;;1.40;99.90;;;;;;6149449;23;20569;-84
2022/01/21 07:42:43;;;;;;;21.90;11.57;;;0.80;99.90;;;;;;6120369;23;20251;-83
2022/01/21 07:45:09;;;;;;;25.37;10.20;;;1.40;99.90;;;;;;6122772;23;20339;-85
2022/01/21 07:47:34;;;;;;;24.47;13.03;;;1.40;99.90;;;;;;6117660;23;20196;-83
2022/01/21 07:50:00;;;;;;;16.77;11.40;;;1.50;99.90;;;;;;6147839;23;20541;-84
2022/01/21 07:52:26;;;;;;;18.93;10.83;;;1.50;99.90;;;;;;6145142;23;20184;-83
2022/01/21 07:54:52;;;;;;;16.00;10.20;;;2.00;99.90;;;;;;6146503;23;20347;-83
2022/01/21 07:57:17;;;;;;;20.63;10.07;;;1.50;99.90;;;;;;6146136;23;20152;-82
2022/01/21 07:59:43;;;;;;;18.17;11.90;;;1.30;99.90;;;;;;6122175;23;20564;-83
2022/01/21 08:02:11;;;;;;;16.83;11.37;;;1.50;99.90;;;;;;6147599;23;20153;-81
2022/01/21 08:04:36;;;;;;;16.88;10.75;;;1.40;99.90;;;;;;6145869;23;20196;-82
2022/01/21 08:07:02;;;;;;;14.90;10.37;;;1.30;99.90;;;;;;6121078;23;20254;-83
2022/01/21 08:09:28;;;;;;;16.17;11.10;;;1.30;99.90;;;;;;6146208;23;20203;-83
2022/01/21 08:11:55;;;;;;;19.50;12.63;;;1.30;99.90;;;;;;6121915;23;20922;-84
2022/01/21 08:14:23;;;;;;;16.90;11.43;;;1.30;99.90;;;;;;6144288;23;20156;-83
2022/01/21 08:16:50;;;;;;;23.98;11.70;;;1.30;99.90;;;;;;6121821;23;20149;-84
2022/01/21 08:19:16;;;;;;;16.25;10.57;;;0.90;99.90;;;;;;6146112;23;20495;-83
2022/01/21 08:21:41;;;;;;;21.70;9.57;;;1.20;99.90;;;;;;6121342;23;20152;-84
2022/01/21 08:24:09;;;;;;;14.40;10.60;;;1.40;99.90;;;;;;6143817;23;20153;-83
2022/01/21 08:26:35;;;;;;;22.80;10.63;;;1.40;99.90;;;;;;6147064;23;20380;-83
2022/01/21 08:29:03;;;;;;;16.55;11.65;;;1.20;99.90;;;;;;6146580;23;20164;-83
2022/01/21 08:31:28;;;;;;;17.50;11.13;;;1.20;99.90;;;;;;6120782;23;20240;-84
2022/01/21 08:33:55;;;;;;;11.97;9.50;;;1.30;99.90;;;;;;6120799;23;20600;-86
2022/01/21 08:36:22;;;;;;;15.90;9.50;;;1.30;99.90;;;;;;6122637;23;20461;-84
2022/01/21 08:38:48;;;;;;;11.77;9.52;;;1.50;99.90;;;;;;6146924;23;20149;-83
2022/01/21 08:41:14;;;;;;;11.77;10.65;;;1.30;99.90;;;;;;6149526;23;20152;-84
2022/01/21 08:43:40;;;;;;;16.48;11.35;;;4.00;99.90;;;;;;6153053;23;20161;-85
2022/01/21 08:46:07;;;;;;;11.67;9.00;;;1.50;99.90;;;;;;6127291;23;20156;-85
2022/01/21 08:48:32;;;;;;;16.55;8.68;;;1.70;99.90;;;;;;6131468;23;20207;-85
2022/01/21 08:51:01;;;;;;;15.43;11.20;;;;;;;;;;6156345;23;20155;-84
2022/01/21 08:53:37;;;;;;;12.07;9.10;;;1.90;99.90;;;;;;6130751;23;20259;-85
2022/01/21 08:56:08;;;;;;;15.20;9.25;;;1.80;99.90;;;;;;6154312;23;20133;-84
2022/01/21 08:58:33;;;;;;;12.70;7.80;;;1.70;99.90;;;;;;6121137;23;20258;-84
2022/01/21 09:00:59;;;;;;;8.57;7.77;;;2.00;99.90;;;;;;6123242;23;20612;-83
2022/01/21 09:03:25;;;;;;;13.13;9.50;;;2.10;99.90;;;;;;6150290;23;20155;-83
2022/01/21 09:05:51;;;;;;;12.07;7.43;;;2.20;99.90;;;;;;6122643;23;20156;-83
2022/01/21 09:08:23;;;;;;;13.48;8.57;;;2.50;99.90;;;;;;6146242;23;20184;-84
2022/01/21 09:10:49;;;;;;;11.13;7.40;;;3.40;99.90;;;;;;6122700;23;20608;-84
2022/01/21 09:13:15;;;;;;;14.40;6.95;;;2.50;99.90;;;;;;6119360;23;20231;-84
2022/01/21 09:15:41;;;;;;;8.50;6.37;;;2.70;99.90;;;;;;6147556;23;20541;-83
2022/01/21 09:18:07;;;;;;;7.30;6.27;;;2.70;99.90;;;;;;6145572;23;20152;-84
2022/01/21 09:20:34;;;;;;;7.33;6.60;;;2.70;99.90;;;;;;6121432;23;20153;-85
2022/01/21 09:23:00;;;;;;;13.85;7.50;;;2.80;99.90;;;;;;6145036;23;20388;-84
2022/01/21 09:25:26;;;;;;;13.63;6.33;;;2.80;99.90;;;;;;6121470;23;20235;-84
2022/01/21 09:27:51;;;;;;;11.90;7.80;;;2.80;99.90;;;;;;6119582;23;20439;-82
2022/01/21 09:30:17;;;;;;;12.50;6.80;;;2.70;99.90;;;;;;6121447;23;20632;-84
2022/01/21 09:32:43;;;;;;;8.27;6.90;;;3.00;99.90;;;;;;6145064;23;20564;-83
2022/01/21 09:35:10;;;;;;;8.40;6.10;;;2.90;99.90;;;;;;6121067;23;20141;-84
2022/01/21 09:37:36;;;;;;;6.70;5.90;;;2.90;99.90;;;;;;6121308;23;20726;-83
2022/01/21 09:40:05;;;;;;;9.68;5.95;;;3.00;99.90;;;;;;6145266;23;20148;-82
2022/01/21 09:42:33;;;;;;;11.95;6.03;;;3.60;99.90;;;;;;6147100;23;20677;-83
2022/01/21 09:44:59;;;;;;;7.70;4.90;;;3.60;99.90;;;;;;6118716;23;20161;-81
2022/01/21 09:47:31;;;;;;;5.47;4.65;;;4.10;99.90;;;;;;6147698;23;20616;-83
2022/01/21 09:49:57;;;;;;;8.70;4.40;;;4.50;99.90;;;;;;6119962;23;20536;-83
2022/01/21 09:52:24;;;;;;;13.10;5.37;;;5.00;99.90;;;;;;6147373;23;20184;-81
2022/01/21 09:54:53;;;;;;;5.35;4.95;;;5.30;99.90;;;;;;6114702;23;20431;-82
2022/01/21 09:57:22;;;;;;;8.05;5.13;;;5.20;99.90;;;;;;6117449;23;20203;-83
2022/01/21 09:59:49;;;;;;;5.30;4.80;;;5.00;99.90;;;;;;6115436;23;20672;-83
2022/01/21 10:02:18;;;;;;;6.35;4.95;;;6.20;99.90;;;;;;6143844;23;20157;-83
2022/01/21 10:04:49;;;;;;;5.75;4.93;;;4.80;99.90;;;;;;6141492;23;20436;-82
2022/01/21 10:07:17;;;;;;;9.35;5.47;;;4.50;99.90;;;;;;6116608;23;20283;-80
2022/01/21 10:09:44;;;;;;;9.20;5.13;;;4.90;99.90;;;;;;6139455;23;20163;-83
2022/01/21 10:12:10;;;;;;;7.15;4.80;;;5.80;99.90;;;;;;6140709;23;20183;-84
2022/01/21 10:14:38;;;;;;;5.90;5.10;;;6.00;99.90;;;;;;6117698;23;20168;-84
2022/01/21 10:17:05;;;;;;;13.32;5.65;;;6.90;99.90;;;;;;6115325;23;20396;-82
2022/01/21 10:19:39;;;;;;;5.18;4.78;;;5.20;99.90;;;;;;6145695;23;20156;-82
2022/01/21 10:22:18;;;;;;;7.10;5.03;;;5.20;99.90;;;;;;6117761;23;20582;-83
2022/01/21 10:24:57;;;;;;;5.60;5.10;;;5.10;99.90;;;;;;6121240;23;20226;-82
2022/01/21 10:27:24;;;;;;;7.00;5.47;;;5.30;99.90;;;;;;6146461;23;20303;-83
2022/01/21 10:29:53;;;;;;;13.75;5.28;;;5.60;99.90;;;;;;6148661;23;20459;-84
2022/01/21 10:32:44;;;;;;;7.38;4.00;;;5.60;99.90;;;;;;6121692;23;20177;-82
2022/01/21 10:35:22;;;;;;;7.35;6.75;;;5.80;99.90;;;;;;6146942;23;20129;-84
2022/01/21 10:37:49;;;;;;;11.13;3.88;;;5.80;99.90;;;;;;6122559;23;20153;-82
2022/01/21 10:40:16;;;;;;;12.75;5.63;;;7.70;99.90;;;;;;6146765;23;20152;-83
2022/01/21 10:42:42;;;;;;;5.32;4.65;;;6.40;99.90;;;;;;6122276;23;20160;-83
2022/01/21 10:45:09;;;;;;;5.07;4.33;;;5.90;99.90;;;;;;6121796;23;20232;-85
2022/01/21 10:47:46;;;;;;;6.28;4.40;;;6.70;99.90;;;;;;6122977;23;20436;-82
2022/01/21 10:50:16;;;;;;;6.22;4.50;;;9.30;99.90;;;;;;6143110;23;20632;-84
2022/01/21 10:52:51;;;;;;;4.70;4.10;;;7.60;99.90;;;;;;6147001;23;20188;-84
2022/01/21 10:55:32;;;;;;;4.82;3.83;;;9.20;99.90;;;;;;6143380;23;20156;-83
2022/01/21 10:58:12;;;;;;;4.60;4.20;;;10.10;99.90;;;;;;6119707;23;20239;-85
2022/01/21 11:00:58;;;;;;;8.40;4.37;;;8.90;99.90;;;;;;6147417;23;20403;-85
2022/01/21 11:03:24;;;;;;;4.47;4.05;;;8.80;99.90;;;;;;6129998;23;20436;-86
2022/01/21 11:06:18;;;;;;;10.03;4.53;;;8.50;99.90;;;;;;6152434;23;20228;-85
2022/01/21 11:08:46;;;;;;;5.07;3.87;;;9.10;99.90;;;;;;6126388;23;20509;-85
2022/01/21 11:11:20;;;;;;;3.92;3.63;;;11.30;99.90;;;;;;6155929;23;20448;-85
2022/01/21 11:13:47;;;;;;;4.05;3.60;;;8.40;99.90;;;;;;6125913;23;20175;-85
2022/01/21 11:16:23;;;;;;;5.53;3.78;;;10.50;99.90;;;;;;6124168;23;20258;-86
2022/01/21 11:18:58;;;;;;;11.07;4.68;;;7.40;99.90;;;;;;6126529;23;20223;-87
2022/01/21 11:21:47;;;;;;;4.00;3.80;;;7.70;99.90;;;;;;6149764;23;20222;-84
2022/01/21 11:24:16;;;;;;;7.03;4.47;;;7.00;99.90;;;;;;6115236;23;20727;-82
2022/01/21 11:26:43;;;;;;;8.30;4.22;;;4.90;99.90;;;;;;6113319;23;20550;-81
2022/01/21 11:29:10;;;;;;;3.60;3.33;;;6.50;99.90;;;;;;6145538;23;20161;-84
2022/01/21 11:31:52;;;;;;;;;;;;;;;;;;;;;
2022/01/21 11:34:28;;;;;;;3.30;3.00;;;7.00;99.90;;;;;;6158020;23;20165;-84
2022/01/21 11:36:55;;;;;;;3.60;3.30;;;7.20;99.90;;;;;;6141112;23;20172;-82
2022/01/21 11:39:23;;;;;;;3.47;3.20;;;8.70;99.90;;;;;;6144101;23;20391;-81
2022/01/21 11:41:51;;;;;;;4.90;4.30;;;7.00;99.90;;;;;;6115293;23;20187;-80
2022/01/21 11:44:20;;;;;;;4.72;3.55;;;7.00;99.90;;;;;;6143181;23;20156;-81
2022/01/21 11:47:01;;;;;;;8.55;4.25;;;6.60;99.90;;;;;;6141324;23;20649;-80
2022/01/21 11:49:28;;;;;;;5.43;3.67;;;6.80;99.90;;;;;;6143329;23;20533;-81
2022/01/21 11:52:18;;;;;;;6.20;3.72;;;6.30;99.90;;;;;;6136979;23;20936;-83
2022/01/21 11:54:44;;;;;;;6.18;3.67;;;6.20;99.90;;;;;;6090161;23;20512;-83
2022/01/21 11:57:11;;;;;;;5.93;4.13;;;6.00;99.90;;;;;;6113060;23;20153;-83
2022/01/21 12:02:26;;;;;;;5.88;3.85;;;6.60;99.90;;;;;;6117308;23;20175;-84
2022/01/21 12:05:07;;;;;;;8.55;3.30;;;6.50;99.90;;;;;;6090683;23;20157;-83
2022/01/21 12:07:44;;;;;;;5.15;3.03;;;6.80;99.90;;;;;;6087926;23;20440;-84
2022/01/21 12:10:22;;;;;;;8.35;3.45;;;9.20;99.90;;;;;;6088592;23;20155;-85
2022/01/21 12:16:18;;;;;;;5.70;3.60;;;6.80;99.90;;;;;;6117497;23;20220;-82
2022/01/21 12:19:35;;;;;;;7.20;3.70;;;6.80;99.90;;;;;;6113185;23;20231;-85
2022/01/21 12:21:37;;;;;;;4.85;3.00;;;6.60;99.90;;;;;;6093295;23;20320;-83
2022/01/21 12:24:08;;;;;;;11.90;3.55;;;6.80;99.90;;;;;;6092647;23;20468;-83
2022/01/21 12:26:35;;;;;;;4.50;3.75;;;6.90;99.90;;;;;;6092105;23;20276;-83
2022/01/21 12:29:07;;;;;;;2.90;2.72;;;7.00;99.90;;;;;;6093343;23;20189;-83
2022/01/21 12:31:51;;;;;;;4.05;3.75;;;8.10;99.90;;;;;;6091882;23;20653;-82
2022/01/21 12:34:17;;;;;;;5.47;3.80;;;8.00;99.90;;;;;;6118320;23;20141;-82
2022/01/21 12:36:52;;;;;;;12.50;4.20;;;7.20;99.90;;;;;;6091207;23;20153;-84
2022/01/21 12:39:48;;;;;;;6.50;3.60;;;6.80;99.90;;;;;;6096263;23;20605;-83
2022/01/21 12:42:19;;;;;;;5.65;2.83;;;5.10;99.90;;;;;;6091897;23;20440;-84
2022/01/21 12:45:06;;;;;;;4.53;2.75;;;6.70;99.90;;;;;;6096658;23;20169;-85
2022/01/21 12:47:45;;;;;;;5.07;3.72;;;6.60;99.90;;;;;;6077166;23;20191;-82
2022/01/21 12:58:19;;;;;;;5.32;2.95;;;6.10;99.90;;;;;;6147626;23;20199;-83
2022/01/21 13:00:45;;;;;;;8.10;4.28;;;6.60;99.90;;;;;;6145740;23;20160;-85
2022/01/21 13:03:24;;;;;;;8.93;4.32;;;8.10;99.90;;;;;;6147517;23;20486;-84
2022/01/21 13:06:00;;;;;;;6.55;4.15;;;6.00;99.90;;;;;;6119469;23;20141;-83
2022/01/21 13:08:46;;;;;;;4.32;3.92;;;5.20;99.90;;;;;;6146717;23;20481;-83
2022/01/21 13:11:24;;;;;;;5.82;3.30;;;5.90;99.90;;;;;;6118913;23;20171;-85
2022/01/21 13:17:01;;;;;;;5.60;3.78;;;5.90;99.90;;;;;;6145633;23;20506;-83
2022/01/21 13:19:28;;;;;;;8.48;3.95;;;6.00;99.90;;;;;;6120957;23;20164;-82
2022/01/21 13:21:53;;;;;;;11.88;6.80;;;6.90;99.90;;;;;;6144188;23;20534;-85
2022/01/21 13:24:28;;;;;;;7.03;4.03;;;6.30;99.90;;;;;;6120863;23;20725;-83
2022/01/21 13:26:54;;;;;;;10.38;3.75;;;5.90;99.90;;;;;;6145878;23;20149;-86
2022/01/21 13:29:29;;;;;;;5.93;4.18;;;5.80;99.90;;;;;;6148471;23;20223;-84
2022/01/21 13:31:58;;;;;;;9.35;4.47;;;5.70;99.90;;;;;;6145111;23;20191;-83
2022/01/21 13:34:33;;;;;;;6.13;3.53;;;5.90;99.90;;;;;;6146900;23;20203;-86
2022/01/21 13:37:01;;;;;;;14.02;4.10;;;6.30;99.90;;;;;;6119242;23;20646;-84
2022/01/21 13:39:35;;;;;;;8.52;4.40;;;6.00;99.90;;;;;;6124648;23;20357;-83
2022/01/21 13:42:16;;;;;;;6.53;4.70;;;5.40;99.90;;;;;;6120582;23;20211;-83
2022/01/21 13:45:08;;;;;;;4.47;3.97;;;6.00;99.90;;;;;;6120936;23;20565;-86
2022/01/21 13:47:45;;;;;;;15.35;4.60;;;5.80;99.90;;;;;;6119396;23;20184;-82
2022/01/21 13:50:25;;;;;;;8.63;4.50;;;5.80;99.90;;;;;;6118619;23;20152;-82
2022/01/21 13:53:00;;;;;;;4.05;3.30;;;5.70;99.90;;;;;;6102760;23;20204;-83
2022/01/21 13:55:46;;;;;;;7.63;4.25;;;6.80;99.90;;;;;;6093303;23;20490;-84
2022/01/21 13:58:17;;;;;;;10.77;4.80;;;5.80;99.90;;;;;;6093239;23;20153;-83
2022/01/21 14:01:13;;;;;;;10.57;4.22;;;5.90;99.90;;;;;;6093957;23;20491;-83
2022/01/21 14:03:44;;;;;;;8.57;4.13;;;6.00;99.90;;;;;;6120597;23;20160;-84
2022/01/21 14:06:16;;;;;;;9.93;4.25;;;5.70;99.90;;;;;;6091444;23;20394;-85
2022/01/21 14:08:46;;;;;;;6.18;4.80;;;5.90;99.90;;;;;;6123608;23;20185;-85